DIRECCIÓN GENERAL DE AERONÁUTICA CIVIL
DIRECCIÓN METEOROLÓGICA DE CHILE
INFORMACIÓN METAR Y TAF

FIR PUERTO MONTT

Estación: SCQP
METAR SCQP 182000Z 36005KT 4600 RA SCT004 OVC024 12/12 Q1006=

TAF SCQP 181626Z 1818/1918 36015KT 5000 RA SCT015 OVC030 TX15/1819Z TN09/1910Z TEMPO 1818/1822 VRB01KT 2500 +RA OVC015 BECMG 1822/1824 30007KT 5000 SHRA BKN020 TEMPO 1902/1906 01007KT 3000 -RA SCT007 BKN035=

Estación: SCVD
METAR SCVD 182000Z 01004KT 330V060 5000 RA FEW016 OVC022 12/12 Q1004=

TAF SCVD 181626Z 1818/1906 29010KT 4000 RA BKN015 OVC025 TX15/1819Z TN11/1906Z TEMPO 1818/1820 2000 +RA OVC015 BECMG 1822/1900 5000 SHRA BKN020=

Estación: SCJO
METAR SCJO 182000Z 32007KT 9999 SCT015 SCT080 BKN200 13/13 Q1003=

TAF SCJO 181626Z 1818/1906 32010KT 4000 RA OVC020 TX14/1818Z TN10/1906Z BECMG 1820/1822 26007KT 5000 SHRA BKN025=

Estación: SCTE
SPECI SCTE 182015Z 30004KT 8000 SCT012 BKN018 12/12 Q1002 NOSIG=

TAF SCTE 181627Z 1818/1918 35010KT 5000 RA BKN007 OVC015 TX13/1818Z TN09/1909Z TEMPO 1818/1820 VRB01KT 2000 +RA OVC010 BECMG 1821/1823 27008KT 5000 SHRA -RA BKN015 OVC020=

Estación: SCPQ
METAR SCPQ 182000Z 27011KT 250V330 9999 VCSH FEW018 SCT026 BKN038 13/10 Q1000=

TAF SCPQ 181628Z 1818/1906 32008KT 5000 -RA BKN015 OVC030 TX13/1818Z TN10/1906Z BECMG 1821/1823 25007KT 5000 SHRA BKN025=

Estación: SCON
METAR SCON 182000Z AUTO 27003KT 210V310 9999 -RA ///026 12/11 Q0999=

TAF SCON 281051Z 2812/2824 36010KT 9999 SCT010 BKN023 OVC060 TN14/ 2812Z TX16/2818Z TEMPO 2812/2813 5000 -SHRA BECMG 2813/2815 36015KT 5000 RA BKN010 OVC025 BECMG 2818/2820 27010KT 9999 NSW BKN020 BKN050=

Estación: SCTN
SPECI SCTN 182038Z AUTO 33011KT 9999 +RA BKN007 OVC029 12/11 Q1000=

TAF SCTN 181628Z 1818/1906 30010KT 4000 RA BKN010 OVC020 TX13/1818Z TN10/1906Z TEMPO 1820/1900 5000 SHRA BKN017=

Estación: SCFT
METAR SCFT 182000Z AUTO 26006KT 180V300 9999 -RA ///043 11/06 Q0997=

NIL=

Estación: SCAP
METAR SCAP 181900Z AUTO 20009KT 150V250 //// // FEW040 12/07 Q1002=

NIL=

Estación: SCMK
METAR SCMK 181600Z 27004KT 9999 SCT013 OVC020 12/10 Q0996=

TAF SCMK 181629Z 1818/1906 29010KT 5000 SHRA BKN015 OVC025 TX13/1818Z TN09/1906Z TEMPO 1819/1823 23012KT 3000 RA SHRA BKN006 OVC015=

Estación: SCAS
METAR SCAS 171900Z 24008KT 8000 -RA SCT010 OVC030 11/10 Q1012=

NIL=

Estación: SCCY
METAR SCCY 182000Z 17002KT 9999 -SHRA SCT011 OVC030 11/09 Q0994=

TAF SCCY 181630Z 1818/1906 VRB01KT 5000 RA BKN015 OVC030 TX11/1818Z TN08/1906Z TEMPO 1820/1900 35005KT 3000 RA OVC020=

Estación: SCBA
METAR SCBA 182000Z 30009KT 9999 -SHRA FEW015 BKN030 OVC070 09/07 Q0993=

TAF SCBA 181631Z 1818/1918 30006KT 7000 -RA BKN015 OVC020 TX11/1818Z TN05/1910Z TEMPO 1820/1900 VRB01KT 3000 RA OVC010 BECMG 1902/1904 9999 NSW SCT030=

Estación: SCCC
METAR SCCC 171900Z 32012KT 9999 OVC040 16/05 Q1007=

NIL=

Estación: SCHR
METAR SCHR 171900Z 29011KT 9999 OVC035 12/07 Q1004=

TAF SCHR 171033Z 1712/1800 02005KT 8000 SCT030 TN04/1712Z TX10/1718Z PROB30 TEMPO 1712/1715 2000 BCFG SCT010 BECMG 1716/1718 34005KT BECMG 1721/1723 5000 RA BKN020 OVC030=


Volver